»·PEaware :: UAL1399 KFAT-KLAX

UAL1399 :: KFAT-KLAX

FLIGHT INFORMATION

Flight Status: Arrived
Operator:
United Airlines
More flights by this operator :: More flights under this callsign
Pilot: David C. (16084)
Aircraft: AIRBUS A320
(A320)
More flights by this aircraft type
Origin: KFAT Fresno Yosemite Intl
United States
Destination: KLAX Los Angeles Intl
United States
More flights between these airports :: More routes between these airports
Route: +BULL3 CZQ FRAME PONDD TAFTO MUPTT IRNMN2
File this flight plan on PilotEdge
Remarks:
Altitude:
(Current/Filed)
27,000ft
Speed:
(Current/Filed)
490kts
Departed: 12-Jun-19 11:15 AM
Arrived: 12-Jun-19 12:01 PM
Distance/Time
Traveled:
182nm/0:46
Distance/Time
To Go:
Arrived

Flight Plot

Page will automatically refresh every two minutes.

Flight plan parsing failed; only flown route is shown


Map Options




Map Legend


Flown Route
Filed Route
Departure Airport
Arrival Airport
Navaid (VOR, NDB)
Fix

Horizontal Profiles

Position Reports

Time Latitude Longitude Heading Altitude Ground
Speed
12-Jun-19 10:28 36.770965 -119.718200 312 344ft 0kts
12-Jun-19 10:29 36.770965 -119.718200 312 344ft 0kts
12-Jun-19 10:30 36.770965 -119.718200 312 344ft 0kts
12-Jun-19 10:31 36.770965 -119.718200 312 344ft 0kts
12-Jun-19 10:32 36.770965 -119.718200 312 344ft 0kts
12-Jun-19 10:33 36.770965 -119.718200 312 344ft 0kts
12-Jun-19 10:34 36.770965 -119.718200 312 344ft 0kts
12-Jun-19 10:35 36.770965 -119.718200 312 344ft 0kts
12-Jun-19 10:36 36.770965 -119.718200 312 344ft 0kts
12-Jun-19 10:37 36.770965 -119.718200 312 344ft 0kts
12-Jun-19 10:38 36.770965 -119.718200 312 344ft 0kts
12-Jun-19 10:39 36.770965 -119.718200 312 344ft 0kts
12-Jun-19 10:40 36.770965 -119.718200 312 344ft 0kts
12-Jun-19 10:41 36.770965 -119.718200 312 344ft 0kts
12-Jun-19 10:42 36.770965 -119.718200 312 344ft 0kts
12-Jun-19 10:43 36.770965 -119.718200 312 344ft 0kts
12-Jun-19 10:45 36.770965 -119.718200 312 344ft 0kts
12-Jun-19 10:46 36.770965 -119.718200 312 344ft 0kts
12-Jun-19 10:47 36.770965 -119.718200 312 344ft 0kts
12-Jun-19 10:48 36.770965 -119.718200 312 344ft 0kts
12-Jun-19 10:49 36.770965 -119.718200 312 344ft 0kts
12-Jun-19 10:50 36.770965 -119.718200 312 344ft 0kts
12-Jun-19 10:51 36.770965 -119.718200 312 344ft 0kts
12-Jun-19 10:52 36.770965 -119.718200 312 344ft 0kts
12-Jun-19 10:53 36.770965 -119.718200 312 344ft 0kts
12-Jun-19 10:54 36.770965 -119.718200 312 344ft 0kts
12-Jun-19 10:55 36.770965 -119.718200 312 344ft 0kts
12-Jun-19 10:56 36.770965 -119.718200 312 344ft 0kts
12-Jun-19 10:57 36.770965 -119.718200 312 344ft 0kts
12-Jun-19 10:58 36.770965 -119.718200 312 344ft 0kts
12-Jun-19 10:59 36.770965 -119.718200 312 344ft 0kts
12-Jun-19 11:00 36.770660 -119.718000 354 344ft 2kts
12-Jun-19 11:01 36.770434 -119.718030 15 344ft 0kts
12-Jun-19 11:02 36.770434 -119.718030 15 344ft 0kts
12-Jun-19 11:03 36.770434 -119.718030 15 344ft 0kts
12-Jun-19 11:04 36.770434 -119.718030 15 344ft 0kts
12-Jun-19 11:04 36.770434 -119.718030 15 344ft 0kts
12-Jun-19 11:05 36.770434 -119.718030 15 344ft 0kts
12-Jun-19 11:07 36.772621 -119.716662 308 344ft 14kts
12-Jun-19 11:07 36.774734 -119.720366 304 344ft 16kts
12-Jun-19 11:08 36.777616 -119.725339 305 344ft 18kts
12-Jun-19 11:10 36.781375 -119.731841 334 344ft 14kts
12-Jun-19 11:10 36.783136 -119.730749 33 344ft 0kts
12-Jun-19 11:11 36.783139 -119.730747 33 344ft 0kts
12-Jun-19 11:12 36.783139 -119.730747 33 344ft 0kts
12-Jun-19 11:13 36.783657 -119.729507 120 344ft 5kts
12-Jun-19 11:14 36.762816 -119.693680 125 1411ft 189kts
12-Jun-19 11:15 36.729919 -119.635481 125 4452ft 214kts
12-Jun-19 11:16 36.691877 -119.567147 125 6780ft 273kts
12-Jun-19 11:17 36.640832 -119.496211 164 9953ft 288kts
12-Jun-19 11:18 36.559850 -119.473052 167 12599ft 319kts
12-Jun-19 11:19 36.472759 -119.448468 167 13183ft 322kts
12-Jun-19 11:20 36.383490 -119.423516 168 15585ft 333kts
12-Jun-19 11:21 36.291544 -119.397881 168 18115ft 344kts
12-Jun-19 11:22 36.196654 -119.371470 169 20360ft 355kts
12-Jun-19 11:23 36.099506 -119.344498 170 22344ft 366kts
12-Jun-19 11:24 36.001210 -119.317270 171 24172ft 375kts
12-Jun-19 11:25 35.898142 -119.288822 171 25597ft 393kts
12-Jun-19 11:26 35.788630 -119.271367 187 26884ft 400kts
12-Jun-19 11:27 35.671893 -119.281550 187 26971ft 439kts
12-Jun-19 11:28 35.545563 -119.292354 187 26973ft 461kts
12-Jun-19 11:29 35.417049 -119.303272 187 26973ft 461kts
12-Jun-19 11:30 35.289189 -119.314162 187 26974ft 461kts
12-Jun-19 11:31 35.160564 -119.324829 185 26971ft 462kts
12-Jun-19 11:32 35.031730 -119.326277 183 26974ft 463kts
12-Jun-19 11:33 34.903634 -119.327199 183 26139ft 447kts
12-Jun-19 11:34 34.788662 -119.327953 183 25252ft 401kts
12-Jun-19 11:35 34.689852 -119.276167 148 23669ft 393kts
12-Jun-19 11:36 34.602109 -119.199678 148 21723ft 380kts
12-Jun-19 11:37 34.519604 -119.127642 147 19815ft 369kts
12-Jun-19 11:38 34.438305 -119.055647 147 17907ft 357kts
12-Jun-19 11:39 34.356213 -118.984750 147 16400ft 355kts
12-Jun-19 11:40 34.280630 -118.916656 145 13986ft 309kts
12-Jun-19 11:41 34.215907 -118.857373 145 12704ft 273kts
12-Jun-19 11:42 34.157152 -118.802208 140 12089ft 265kts
12-Jun-19 11:43 34.103038 -118.743283 140 10858ft 261kts
12-Jun-19 11:44 34.048796 -118.684427 140 9652ft 262kts
12-Jun-19 11:45 34.009746 -118.614408 83 8375ft 270kts
12-Jun-19 11:46 34.016474 -118.525368 99 8018ft 253kts
12-Jun-19 11:47 34.004036 -118.445027 124 7900ft 239kts
12-Jun-19 11:48 33.968742 -118.377621 124 7450ft 238kts
12-Jun-19 11:49 33.934965 -118.312536 119 7004ft 238kts
12-Jun-19 11:50 33.915079 -118.236411 109 5740ft 236kts
12-Jun-19 11:51 33.905294 -118.160231 84 4084ft 232kts
12-Jun-19 11:52 33.913201 -118.087604 70 3513ft 200kts
12-Jun-19 11:53 33.951404 -118.090637 286 3489ft 189kts
12-Jun-19 11:54 33.960486 -118.150898 269 3491ft 177kts
12-Jun-19 11:55 33.955272 -118.209614 264 2999ft 174kts
12-Jun-19 11:56 33.949301 -118.267074 263 2026ft 171kts
12-Jun-19 11:57 33.944101 -118.317300 262 1207ft 133kts
12-Jun-19 11:58 33.939580 -118.361225 262 522ft 131kts
12-Jun-19 11:59 33.935689 -118.398655 262 136ft 41kts
12-Jun-19 12:00 33.935791 -118.405944 291 136ft 0kts
12-Jun-19 12:01 33.935974 -118.408408 293 136ft 17kts
12-Jun-19 12:02 33.938934 -118.406399 83 136ft 21kts
12-Jun-19 12:03 33.939988 -118.400622 359 136ft 13kts
12-Jun-19 12:04 33.940690 -118.400068 78 136ft 0kts
12-Jun-19 12:05 33.940690 -118.400068 78 136ft 0kts

Navigation Log

Ident Type
Flight plan parsing failed, navigation log unavailable